createdAt,value
2023-03-29T00:00:14.260Z,13.90
2023-03-29T00:03:07.264Z,13.00
2023-03-29T00:05:41.438Z,13.90
2023-03-29T00:08:14.923Z,17.60
2023-03-29T00:10:49.833Z,19.30
2023-03-29T00:13:21.809Z,20.40
2023-03-29T00:15:54.143Z,22.50
2023-03-29T00:18:26.279Z,21.20
2023-03-29T00:21:00.211Z,27.70
2023-03-29T00:23:32.576Z,29.30
2023-03-29T00:26:07.166Z,22.80
2023-03-29T00:28:40.139Z,39.90
2023-03-29T00:31:14.255Z,32.60
2023-03-29T00:33:47.136Z,30.10
2023-03-29T00:36:19.899Z,25.70
2023-03-29T00:38:51.998Z,22.60
2023-03-29T00:41:23.976Z,22.70
2023-03-29T00:44:02.126Z,23.00
2023-03-29T00:46:35.227Z,24.40
2023-03-29T00:49:14.184Z,28.60
2023-03-29T00:51:47.022Z,21.00
2023-03-29T00:54:19.889Z,24.50
2023-03-29T00:56:53.948Z,21.10
2023-03-29T00:59:29.916Z,27.30
2023-03-29T01:02:05.500Z,20.50
2023-03-29T01:04:42.740Z,21.00
2023-03-29T01:07:21.853Z,18.90
2023-03-29T01:10:01.593Z,23.20
2023-03-29T01:12:40.470Z,24.00
2023-03-29T01:15:15.461Z,23.00
2023-03-29T01:20:31.156Z,23.60
2023-03-29T01:23:23.173Z,24.70
2023-03-29T01:26:03.531Z,24.50
2023-03-29T01:28:41.884Z,21.50
2023-03-29T01:31:18.439Z,23.40
2023-03-29T01:33:53.275Z,22.20
2023-03-29T01:36:31.649Z,21.50
2023-03-29T01:39:08.670Z,24.60
2023-03-29T01:41:50.865Z,34.90
2023-03-29T01:44:31.517Z,39.90
2023-03-29T01:47:12.495Z,38.40
2023-03-29T01:49:52.559Z,27.70
2023-03-29T01:52:30.850Z,51.10
2023-03-29T01:55:08.243Z,45.00
2023-03-29T01:57:44.042Z,45.50
2023-03-29T02:00:21.294Z,38.60
2023-03-29T02:02:56.210Z,43.40
2023-03-29T02:05:31.627Z,31.70
2023-03-29T02:08:06.870Z,37.90
2023-03-29T02:10:39.650Z,44.80
2023-03-29T02:13:11.991Z,33.80
2023-03-29T02:15:45.603Z,33.10
2023-03-29T02:18:19.411Z,38.90
2023-03-29T02:20:54.018Z,41.90
2023-03-29T02:23:34.387Z,36.60
2023-03-29T02:26:09.053Z,29.90
2023-03-29T02:28:42.120Z,31.10
2023-03-29T02:31:21.402Z,28.00
2023-03-29T02:34:00.520Z,31.60
2023-03-29T02:36:38.376Z,33.60
2023-03-29T02:39:14.481Z,30.40
2023-03-29T02:41:49.982Z,32.30
2023-03-29T02:44:26.039Z,32.00
2023-03-29T02:47:03.503Z,34.90
2023-03-29T02:49:35.736Z,32.10
2023-03-29T02:52:12.496Z,38.80
2023-03-29T02:54:47.106Z,36.20
2023-03-29T02:57:22.214Z,41.30
2023-03-29T02:59:54.682Z,84.50
2023-03-29T03:02:29.941Z,104.00
2023-03-29T03:05:02.416Z,57.60
2023-03-29T03:07:34.991Z,39.50
2023-03-29T03:10:08.252Z,34.80
2023-03-29T03:12:42.061Z,33.70
2023-03-29T03:15:14.824Z,31.10
2023-03-29T03:17:47.638Z,36.70
2023-03-29T03:20:22.253Z,36.80
2023-03-29T03:22:54.616Z,47.60
2023-03-29T03:25:26.640Z,70.50
2023-03-29T03:27:58.705Z,64.60
2023-03-29T03:30:31.118Z,59.80
2023-03-29T03:33:03.315Z,69.50
2023-03-29T03:35:57.212Z,50.80
2023-03-29T03:38:30.093Z,60.60
2023-03-29T03:41:03.920Z,43.00
2023-03-29T03:43:38.012Z,50.20
2023-03-29T03:46:11.639Z,63.50
2023-03-29T03:48:44.019Z,65.40
2023-03-29T03:51:23.315Z,62.10
2023-03-29T03:53:55.481Z,64.00
2023-03-29T03:56:39.970Z,108.00
2023-03-29T03:59:14.696Z,65.80
2023-03-29T04:01:56.066Z,71.60
2023-03-29T04:04:28.878Z,63.80
2023-03-29T04:07:34.603Z,64.40
2023-03-29T04:10:24.774Z,47.40
2023-03-29T04:13:05.156Z,39.10
2023-03-29T04:15:39.684Z,33.50
2023-03-29T04:18:13.801Z,36.10
2023-03-29T04:20:50.742Z,32.20
2023-03-29T04:23:24.347Z,35.70
2023-03-29T04:25:58.283Z,34.90
2023-03-29T04:28:50.211Z,34.40
2023-03-29T04:31:45.719Z,32.50
2023-03-29T04:34:37.044Z,32.00
2023-03-29T04:37:10.748Z,24.80
2023-03-29T04:39:44.978Z,26.50
2023-03-29T04:42:18.357Z,31.00
2023-03-29T04:44:53.387Z,28.40
2023-03-29T04:47:33.140Z,30.20
2023-03-29T04:50:16.255Z,27.20
2023-03-29T04:52:50.945Z,32.00
2023-03-29T04:55:23.383Z,30.00
2023-03-29T04:58:00.865Z,34.80
2023-03-29T05:00:40.100Z,27.50
2023-03-29T05:03:14.696Z,18.90
2023-03-29T05:06:14.212Z,23.30
2023-03-29T05:08:46.688Z,28.00
2023-03-29T05:11:39.020Z,42.20
2023-03-29T05:14:11.263Z,40.40
2023-03-29T05:16:44.346Z,30.20
2023-03-29T05:19:17.689Z,29.70
2023-03-29T05:21:53.270Z,30.40
2023-03-29T05:24:27.510Z,31.30
2023-03-29T05:27:12.003Z,26.70
2023-03-29T05:29:44.995Z,22.30
2023-03-29T05:32:56.185Z,22.70
2023-03-29T05:35:30.321Z,28.20
2023-03-29T05:38:04.482Z,30.90
2023-03-29T05:40:37.706Z,30.30
2023-03-29T05:43:31.100Z,27.10
2023-03-29T05:46:03.587Z,29.50
2023-03-29T05:48:36.229Z,23.40
2023-03-29T05:51:10.229Z,21.60
2023-03-29T05:53:42.573Z,22.80
2023-03-29T05:56:16.413Z,21.00
2023-03-29T05:58:49.359Z,20.00
2023-03-29T06:01:22.641Z,22.40
2023-03-29T06:04:15.441Z,18.20
2023-03-29T06:06:56.640Z,45.20
2023-03-29T06:09:29.158Z,20.90
2023-03-29T06:12:07.624Z,16.20
2023-03-29T06:14:46.414Z,16.50
2023-03-29T06:17:28.216Z,23.60
2023-03-29T06:20:00.733Z,21.10
2023-03-29T06:22:33.459Z,19.40
2023-03-29T06:25:05.926Z,17.40
2023-03-29T06:27:38.736Z,24.10
2023-03-29T06:30:14.636Z,25.40
2023-03-29T06:32:50.651Z,18.10
2023-03-29T06:35:45.391Z,21.80
2023-03-29T06:38:21.022Z,17.60
2023-03-29T06:41:12.081Z,19.30
2023-03-29T06:44:05.224Z,18.70
2023-03-29T06:46:40.913Z,25.80
2023-03-29T06:49:13.956Z,20.70
2023-03-29T06:52:00.182Z,13.50
2023-03-29T06:54:33.733Z,11.50
2023-03-29T06:57:07.995Z,13.80
2023-03-29T06:59:40.262Z,11.80
2023-03-29T07:02:25.917Z,11.80
2023-03-29T07:05:01.728Z,16.80
2023-03-29T07:07:53.617Z,14.90
2023-03-29T07:10:42.061Z,5.10
2023-03-29T07:13:33.259Z,8.70
2023-03-29T07:16:12.767Z,8.50
2023-03-29T07:18:53.754Z,9.00
2023-03-29T07:21:58.956Z,25.60
2023-03-29T07:24:40.119Z,15.00
2023-03-29T07:27:12.956Z,8.60
2023-03-29T07:29:45.089Z,11.50
2023-03-29T07:32:17.547Z,10.90
2023-03-29T07:34:49.770Z,8.40
2023-03-29T07:37:37.876Z,8.00
2023-03-29T07:40:16.380Z,6.30
2023-03-29T07:43:11.804Z,7.00
2023-03-29T07:45:45.120Z,6.10
2023-03-29T07:48:18.560Z,5.50
2023-03-29T07:50:54.456Z,6.10
2023-03-29T07:53:30.814Z,5.90
2023-03-29T07:56:04.708Z,5.90
2023-03-29T07:58:55.857Z,7.60
2023-03-29T08:01:28.401Z,8.40
2023-03-29T08:04:18.278Z,7.30
2023-03-29T08:07:21.442Z,8.90
2023-03-29T08:10:15.445Z,5.60
2023-03-29T08:13:14.215Z,7.40
2023-03-29T08:16:13.140Z,5.50
2023-03-29T08:18:50.467Z,7.60
2023-03-29T08:21:23.571Z,6.40
2023-03-29T08:23:56.340Z,5.60
2023-03-29T08:26:39.835Z,5.60
2023-03-29T08:29:12.715Z,6.40
2023-03-29T08:31:45.694Z,6.40
2023-03-29T08:34:17.865Z,6.50
2023-03-29T08:37:03.362Z,9.50
2023-03-29T08:39:43.066Z,6.00
2023-03-29T08:42:58.831Z,5.20
2023-03-29T08:45:44.124Z,6.70
2023-03-29T08:48:23.561Z,6.70
2023-03-29T08:50:59.295Z,6.50
2023-03-29T08:53:35.087Z,5.50
2023-03-29T08:56:19.920Z,5.40
2023-03-29T08:59:25.238Z,7.80
2023-03-29T09:02:01.516Z,6.40
2023-03-29T09:04:37.817Z,5.80
2023-03-29T09:07:35.298Z,5.70
2023-03-29T09:10:11.105Z,5.70
2023-03-29T09:13:00.063Z,6.90
2023-03-29T09:15:43.165Z,4.20
2023-03-29T09:18:58.545Z,5.50
2023-03-29T09:21:42.719Z,4.80
2023-03-29T09:24:34.961Z,6.10
2023-03-29T09:27:23.147Z,4.40
2023-03-29T09:30:10.946Z,3.60
2023-03-29T09:33:02.069Z,7.40
2023-03-29T09:35:49.295Z,6.40
2023-03-29T09:38:23.834Z,7.20
2023-03-29T09:40:58.471Z,10.80
2023-03-29T09:43:37.327Z,11.70
2023-03-29T09:46:18.561Z,5.50
2023-03-29T09:48:53.674Z,4.70
2023-03-29T09:51:32.239Z,5.00
2023-03-29T09:54:04.834Z,5.50
2023-03-29T09:56:57.010Z,8.50
2023-03-29T09:59:29.533Z,7.90
2023-03-29T10:02:11.376Z,9.70
2023-03-29T10:04:44.676Z,6.90
2023-03-29T10:07:20.825Z,9.20
2023-03-29T10:09:59.745Z,4.40
2023-03-29T10:12:34.310Z,5.20
2023-03-29T10:15:11.727Z,6.40
2023-03-29T10:17:49.117Z,4.60
2023-03-29T10:20:22.523Z,3.40
2023-03-29T10:22:59.425Z,5.10
2023-03-29T10:25:33.832Z,4.50
2023-03-29T10:28:13.148Z,25.00
2023-03-29T10:30:47.610Z,4.70
2023-03-29T10:33:23.166Z,6.70
2023-03-29T10:35:56.642Z,4.80
2023-03-29T10:38:31.568Z,5.70
2023-03-29T10:41:11.787Z,6.50
2023-03-29T10:43:49.572Z,4.40
2023-03-29T10:46:28.764Z,3.90
2023-03-29T10:49:06.364Z,4.40
2023-03-29T10:51:39.150Z,3.30
2023-03-29T10:54:15.931Z,3.40
2023-03-29T10:56:52.562Z,3.70
2023-03-29T10:59:31.220Z,4.60
2023-03-29T11:02:27.256Z,4.20
2023-03-29T11:05:10.691Z,6.80
2023-03-29T11:07:54.012Z,4.40
2023-03-29T11:10:38.587Z,2.80
2023-03-29T11:13:22.397Z,2.90
2023-03-29T11:16:05.568Z,3.50
2023-03-29T11:18:57.890Z,3.00
2023-03-29T11:21:39.865Z,4.70
2023-03-29T11:24:30.745Z,3.00
2023-03-29T11:27:24.884Z,5.50
2023-03-29T11:30:11.049Z,2.60
2023-03-29T11:32:54.728Z,5.00
2023-03-29T11:35:43.476Z,4.70
2023-03-29T11:38:25.794Z,4.50
2023-03-29T11:41:03.600Z,3.50
2023-03-29T11:43:42.977Z,6.50
2023-03-29T11:46:20.347Z,4.60
2023-03-29T11:48:58.155Z,4.30
2023-03-29T11:51:35.613Z,4.20
2023-03-29T11:54:18.863Z,5.10
2023-03-29T11:56:57.440Z,5.30
2023-03-29T11:59:35.326Z,5.20
2023-03-29T12:02:19.834Z,4.50
2023-03-29T12:04:57.193Z,6.00
2023-03-29T12:07:33.875Z,4.60
2023-03-29T12:10:11.125Z,4.40
2023-03-29T12:12:52.800Z,3.80
2023-03-29T12:15:27.983Z,4.00
2023-03-29T12:18:08.899Z,6.20
2023-03-29T12:20:42.743Z,5.50
2023-03-29T12:23:18.950Z,4.70
2023-03-29T12:26:02.551Z,4.20
2023-03-29T12:29:13.550Z,5.00
2023-03-29T12:31:54.714Z,5.40
2023-03-29T12:34:50.062Z,7.00
2023-03-29T12:38:07.368Z,5.20
2023-03-29T12:41:02.160Z,3.90
2023-03-29T12:44:02.166Z,5.70
2023-03-29T12:46:59.650Z,4.10
2023-03-29T12:49:35.606Z,5.50
2023-03-29T12:52:24.838Z,4.80
2023-03-29T12:54:59.907Z,4.70
2023-03-29T12:57:44.728Z,6.40
2023-03-29T13:00:27.612Z,6.30
2023-03-29T13:03:22.820Z,5.00
2023-03-29T13:06:05.277Z,5.00
2023-03-29T13:08:40.778Z,8.70
2023-03-29T13:11:27.632Z,5.60
2023-03-29T13:14:01.586Z,5.50
2023-03-29T13:16:36.129Z,6.30
2023-03-29T13:19:28.723Z,4.40
2023-03-29T13:22:18.876Z,7.40
2023-03-29T13:25:06.375Z,3.70
2023-03-29T13:27:51.205Z,6.40
2023-03-29T13:30:33.701Z,6.10
2023-03-29T13:33:35.545Z,5.60
2023-03-29T13:36:16.166Z,18.70
2023-03-29T13:38:51.303Z,4.90
2023-03-29T13:41:47.028Z,5.50
2023-03-29T13:44:36.137Z,4.80
2023-03-29T13:47:28.661Z,4.60
2023-03-29T13:50:06.675Z,4.80
2023-03-29T13:52:42.603Z,4.70
2023-03-29T13:55:21.139Z,7.20
2023-03-29T13:57:57.787Z,5.70
2023-03-29T14:00:37.027Z,5.50
2023-03-29T14:03:14.170Z,6.20
2023-03-29T14:05:53.555Z,5.40
2023-03-29T14:08:30.401Z,5.70
2023-03-29T14:11:07.457Z,11.50
2023-03-29T14:13:40.370Z,6.10
2023-03-29T14:16:14.868Z,4.30
2023-03-29T14:18:51.373Z,5.80
2023-03-29T14:21:24.128Z,7.00
2023-03-29T14:24:01.698Z,9.80
2023-03-29T14:26:36.125Z,6.90
2023-03-29T14:29:12.137Z,7.10
2023-03-29T14:31:45.695Z,6.20
2023-03-29T14:34:19.585Z,7.20
2023-03-29T14:36:54.383Z,6.20
2023-03-29T14:39:27.444Z,5.50
2023-03-29T14:41:59.755Z,5.00
2023-03-29T14:44:34.928Z,6.50
2023-03-29T14:49:38.004Z,6.80
2023-03-29T14:52:11.161Z,5.10
2023-03-29T14:54:47.971Z,5.30
2023-03-29T14:57:24.405Z,6.20
2023-03-29T15:00:00.766Z,5.90
2023-03-29T15:02:35.004Z,7.20
2023-03-29T15:05:25.027Z,6.30
2023-03-29T15:07:57.845Z,5.50
2023-03-29T15:10:32.837Z,5.70
2023-03-29T15:13:08.071Z,6.00
2023-03-29T15:15:41.118Z,5.50
2023-03-29T15:18:18.082Z,5.70
2023-03-29T15:20:51.819Z,7.40
2023-03-29T15:23:26.746Z,5.50
2023-03-29T15:26:08.772Z,7.30
2023-03-29T15:28:55.736Z,8.10
2023-03-29T15:31:35.070Z,7.10
2023-03-29T15:34:09.606Z,8.90
2023-03-29T15:36:45.360Z,8.70
2023-03-29T15:39:19.646Z,5.20
2023-03-29T15:41:54.063Z,5.60
2023-03-29T15:44:33.337Z,7.40
2023-03-29T15:47:10.444Z,5.70
2023-03-29T15:49:42.812Z,10.80
2023-03-29T15:52:17.493Z,6.20
2023-03-29T15:54:49.841Z,6.10
2023-03-29T15:57:22.188Z,7.20
2023-03-29T15:59:54.442Z,10.50
2023-03-29T16:02:28.235Z,8.80
2023-03-29T16:05:02.058Z,6.40
2023-03-29T16:07:34.078Z,5.40
2023-03-29T16:10:07.337Z,5.70
2023-03-29T16:12:39.501Z,6.30
2023-03-29T16:15:18.766Z,4.50
2023-03-29T16:17:51.168Z,4.20
2023-03-29T16:20:23.415Z,6.50
2023-03-29T16:22:55.475Z,4.00
2023-03-29T16:25:28.980Z,13.90
2023-03-29T16:28:01.743Z,8.30
2023-03-29T16:30:33.952Z,6.40
2023-03-29T16:33:08.749Z,6.50
2023-03-29T16:35:42.371Z,6.70
2023-03-29T16:38:14.627Z,6.90
2023-03-29T16:40:46.880Z,5.10
2023-03-29T16:43:20.038Z,6.20
2023-03-29T16:45:52.151Z,11.20
2023-03-29T16:48:25.312Z,6.20
2023-03-29T16:50:57.748Z,9.60
2023-03-29T16:53:30.477Z,15.60
2023-03-29T16:56:03.155Z,12.50
2023-03-29T16:58:35.784Z,11.40
2023-03-29T17:01:13.408Z,9.70
2023-03-29T17:03:46.647Z,13.60
2023-03-29T17:06:19.017Z,13.00
2023-03-29T17:08:51.890Z,15.30
2023-03-29T17:11:24.229Z,13.60
2023-03-29T17:13:56.642Z,10.30
2023-03-29T17:16:29.582Z,12.00
2023-03-29T17:19:02.553Z,9.40
2023-03-29T17:21:34.990Z,11.60
2023-03-29T17:24:07.589Z,10.60
2023-03-29T17:26:40.074Z,13.70
2023-03-29T17:29:12.558Z,14.10
2023-03-29T17:31:48.237Z,9.60
2023-03-29T17:34:21.466Z,10.40
2023-03-29T17:36:54.537Z,11.20
2023-03-29T17:39:27.827Z,8.80
2023-03-29T17:42:03.050Z,8.90
2023-03-29T17:44:35.182Z,11.40
2023-03-29T17:47:08.421Z,12.80
2023-03-29T17:49:40.628Z,24.30
2023-03-29T17:52:13.327Z,24.00
2023-03-29T17:54:45.525Z,13.10
2023-03-29T17:57:17.979Z,8.90
2023-03-29T17:59:50.417Z,9.50
2023-03-29T18:02:24.924Z,14.10
2023-03-29T18:04:57.454Z,13.60
2023-03-29T18:07:30.341Z,13.50
2023-03-29T18:10:02.730Z,12.50
2023-03-29T18:12:35.454Z,9.60
2023-03-29T18:15:10.636Z,10.50
2023-03-29T18:17:44.972Z,11.00
2023-03-29T18:20:17.847Z,17.40
2023-03-29T18:22:50.577Z,16.00
2023-03-29T18:25:24.264Z,17.90
2023-03-29T18:27:58.924Z,13.30
2023-03-29T18:30:34.331Z,12.30
2023-03-29T18:33:08.599Z,11.20
2023-03-29T18:35:41.529Z,13.00
2023-03-29T18:38:14.597Z,9.50
2023-03-29T18:40:47.430Z,9.80
2023-03-29T18:43:20.320Z,10.40
2023-03-29T18:45:53.046Z,17.40
2023-03-29T18:48:26.604Z,11.60
2023-03-29T18:51:01.914Z,15.70
2023-03-29T18:53:36.036Z,12.50
2023-03-29T18:56:11.351Z,10.80
2023-03-29T18:58:44.085Z,8.40
2023-03-29T19:01:18.949Z,11.00
2023-03-29T19:03:52.239Z,14.40
2023-03-29T19:06:25.078Z,10.70
2023-03-29T19:08:58.396Z,7.80
2023-03-29T19:11:33.379Z,7.90
2023-03-29T19:14:08.524Z,9.50
2023-03-29T19:16:42.835Z,12.60
2023-03-29T19:19:15.684Z,10.90
2023-03-29T19:21:48.983Z,11.30
2023-03-29T19:24:22.231Z,9.40
2023-03-29T19:26:54.684Z,11.20
2023-03-29T19:29:27.953Z,8.40
2023-03-29T19:32:01.981Z,7.50
2023-03-29T19:34:34.667Z,5.80
2023-03-29T19:37:07.056Z,5.70
2023-03-29T19:39:41.215Z,5.70
2023-03-29T19:42:13.455Z,7.30
2023-03-29T19:44:45.747Z,8.10
2023-03-29T19:47:18.086Z,6.10
2023-03-29T19:49:50.372Z,6.30
2023-03-29T19:52:24.135Z,6.70
2023-03-29T19:54:56.682Z,7.10
2023-03-29T19:57:28.956Z,7.30
2023-03-29T20:00:01.551Z,9.60
2023-03-29T20:02:34.271Z,8.60
2023-03-29T20:05:08.539Z,10.10
2023-03-29T20:07:41.399Z,6.90
2023-03-29T20:10:14.431Z,10.10
2023-03-29T20:12:47.685Z,7.90
2023-03-29T20:15:20.840Z,9.30
2023-03-29T20:17:54.484Z,7.80
2023-03-29T20:20:30.016Z,8.30
2023-03-29T20:23:05.289Z,9.60
2023-03-29T20:25:38.835Z,8.30
2023-03-29T20:28:13.042Z,7.90
2023-03-29T20:30:45.841Z,11.90
2023-03-29T20:33:18.454Z,12.30
2023-03-29T20:35:51.759Z,10.10
2023-03-29T20:38:24.141Z,11.50
2023-03-29T20:40:56.962Z,10.70
2023-03-29T20:43:30.072Z,9.30
2023-03-29T20:46:02.294Z,12.10
2023-03-29T20:48:38.423Z,10.00
2023-03-29T20:53:43.677Z,9.90
2023-03-29T20:56:16.415Z,10.20
2023-03-29T20:58:48.536Z,9.20
2023-03-29T21:01:22.002Z,11.20
2023-03-29T21:03:54.458Z,10.20
2023-03-29T21:06:27.299Z,9.70
2023-03-29T21:09:00.146Z,8.80
2023-03-29T21:11:33.589Z,7.20
2023-03-29T21:14:06.171Z,7.20
2023-03-29T21:16:42.641Z,6.00
2023-03-29T21:19:15.571Z,9.30
2023-03-29T21:21:52.328Z,6.30
2023-03-29T21:24:24.801Z,8.30
2023-03-29T21:26:57.242Z,5.90
2023-03-29T21:29:29.823Z,6.40
2023-03-29T21:32:02.495Z,7.90
2023-03-29T21:34:35.032Z,5.50
2023-03-29T21:37:07.634Z,5.80
2023-03-29T21:39:40.160Z,7.30
2023-03-29T21:42:12.585Z,6.20
2023-03-29T21:44:45.079Z,7.00
2023-03-29T21:47:17.558Z,8.50
2023-03-29T21:49:50.109Z,8.00
2023-03-29T21:52:23.072Z,8.40
2023-03-29T21:54:55.653Z,9.00
2023-03-29T21:57:28.100Z,9.50
2023-03-29T22:00:00.529Z,10.70
2023-03-29T22:02:33.133Z,8.90
2023-03-29T22:05:06.908Z,9.60
2023-03-29T22:07:45.727Z,7.90
2023-03-29T22:10:22.836Z,6.30
2023-03-29T22:12:55.387Z,5.80
2023-03-29T22:15:30.155Z,8.20
2023-03-29T22:18:02.628Z,6.10
2023-03-29T22:20:35.796Z,7.00
2023-03-29T22:23:08.408Z,8.10
2023-03-29T22:25:41.146Z,6.40
2023-03-29T22:28:13.779Z,5.40
2023-03-29T22:30:46.303Z,5.50
2023-03-29T22:33:18.778Z,5.50
2023-03-29T22:35:51.151Z,7.00
2023-03-29T22:38:23.521Z,7.40
2023-03-29T22:40:56.517Z,6.00
2023-03-29T22:43:28.920Z,6.80
2023-03-29T22:46:01.331Z,6.60
2023-03-29T22:48:34.242Z,7.00
2023-03-29T22:51:07.144Z,5.80
2023-03-29T22:53:40.345Z,5.00
2023-03-29T22:56:13.413Z,5.90
2023-03-29T22:58:46.393Z,6.80
2023-03-29T23:01:18.834Z,8.00
2023-03-29T23:03:51.977Z,5.20
2023-03-29T23:06:24.461Z,6.60
2023-03-29T23:08:57.221Z,5.60
2023-03-29T23:11:29.636Z,9.20
2023-03-29T23:14:04.160Z,8.10
2023-03-29T23:16:37.111Z,6.90
2023-03-29T23:19:09.484Z,7.90
2023-03-29T23:21:41.841Z,6.30
2023-03-29T23:24:18.863Z,6.90
2023-03-29T23:26:52.024Z,8.20
2023-03-29T23:29:26.536Z,6.40
2023-03-29T23:31:59.801Z,8.50
2023-03-29T23:34:32.271Z,7.80
2023-03-29T23:37:04.898Z,6.90
2023-03-29T23:39:37.393Z,6.50
2023-03-29T23:42:09.790Z,7.30
2023-03-29T23:44:42.168Z,6.70
2023-03-29T23:47:14.469Z,7.30
2023-03-29T23:49:46.910Z,6.90
2023-03-29T23:52:19.281Z,7.80
2023-03-29T23:54:52.692Z,6.80
2023-03-29T23:57:26.951Z,8.30
